sensor_id;sensor_type;location;lat;lon;timestamp;P1;durP1;ratioP1;P2;durP2;ratioP2
68108;SDS011;54893;49.864;19.084;2023-06-10T00:03:22;28.83;;;15.67;;
68108;SDS011;54893;49.864;19.084;2023-06-10T00:08:23;29.33;;;15.87;;
68108;SDS011;54893;49.864;19.084;2023-06-10T00:13:24;28.67;;;15.17;;
68108;SDS011;54893;49.864;19.084;2023-06-10T00:18:25;27.17;;;15.20;;
68108;SDS011;54893;49.864;19.084;2023-06-10T00:23:27;30.33;;;15.97;;
68108;SDS011;54893;49.864;19.084;2023-06-10T00:28:30;30.27;;;16.70;;
68108;SDS011;54893;49.864;19.084;2023-06-10T00:33:31;32.57;;;16.47;;
68108;SDS011;54893;49.864;19.084;2023-06-10T00:38:31;33.07;;;17.40;;
68108;SDS011;54893;49.864;19.084;2023-06-10T00:43:32;32.30;;;17.57;;
68108;SDS011;54893;49.864;19.084;2023-06-10T00:48:32;34.83;;;18.47;;
68108;SDS011;54893;49.864;19.084;2023-06-10T00:53:33;33.85;;;17.63;;
68108;SDS011;54893;49.864;19.084;2023-06-10T00:58:34;33.53;;;17.57;;
68108;SDS011;54893;49.864;19.084;2023-06-10T01:03:35;37.67;;;19.37;;
68108;SDS011;54893;49.864;19.084;2023-06-10T01:08:47;38.80;;;19.92;;
68108;SDS011;54893;49.864;19.084;2023-06-10T01:13:54;38.67;;;19.48;;
68108;SDS011;54893;49.864;19.084;2023-06-10T01:18:58;37.92;;;19.40;;
68108;SDS011;54893;49.864;19.084;2023-06-10T01:23:58;43.20;;;20.73;;
68108;SDS011;54893;49.864;19.084;2023-06-10T01:29:11;40.58;;;19.55;;
68108;SDS011;54893;49.864;19.084;2023-06-10T01:34:18;43.00;;;21.17;;
68108;SDS011;54893;49.864;19.084;2023-06-10T01:39:20;43.72;;;22.63;;
68108;SDS011;54893;49.864;19.084;2023-06-10T01:44:23;45.00;;;22.83;;
68108;SDS011;54893;49.864;19.084;2023-06-10T01:49:24;46.65;;;21.85;;
68108;SDS011;54893;49.864;19.084;2023-06-10T01:54:26;45.20;;;22.03;;
68108;SDS011;54893;49.864;19.084;2023-06-10T01:59:26;43.03;;;20.75;;
68108;SDS011;54893;49.864;19.084;2023-06-10T02:04:27;42.03;;;20.93;;
68108;SDS011;54893;49.864;19.084;2023-06-10T02:09:27;41.20;;;21.20;;
68108;SDS011;54893;49.864;19.084;2023-06-10T02:14:28;43.27;;;21.40;;
68108;SDS011;54893;49.864;19.084;2023-06-10T02:19:29;46.30;;;22.27;;
68108;SDS011;54893;49.864;19.084;2023-06-10T02:24:30;42.97;;;21.88;;
68108;SDS011;54893;49.864;19.084;2023-06-10T02:29:31;41.93;;;21.87;;
68108;SDS011;54893;49.864;19.084;2023-06-10T02:34:31;42.63;;;21.10;;
68108;SDS011;54893;49.864;19.084;2023-06-10T02:39:31;43.43;;;22.03;;
68108;SDS011;54893;49.864;19.084;2023-06-10T02:44:32;46.83;;;22.80;;
68108;SDS011;54893;49.864;19.084;2023-06-10T02:49:32;45.80;;;22.30;;
68108;SDS011;54893;49.864;19.084;2023-06-10T02:54:32;42.83;;;21.93;;
68108;SDS011;54893;49.864;19.084;2023-06-10T02:59:33;44.63;;;22.63;;
68108;SDS011;54893;49.864;19.084;2023-06-10T03:04:33;41.73;;;21.53;;
68108;SDS011;54893;49.864;19.084;2023-06-10T03:09:34;48.03;;;23.23;;
68108;SDS011;54893;49.864;19.084;2023-06-10T03:14:34;50.33;;;24.03;;
68108;SDS011;54893;49.864;19.084;2023-06-10T03:19:35;49.90;;;24.10;;
68108;SDS011;54893;49.864;19.084;2023-06-10T03:24:37;48.10;;;24.23;;
68108;SDS011;54893;49.864;19.084;2023-06-10T03:29:40;55.10;;;26.10;;
68108;SDS011;54893;49.864;19.084;2023-06-10T03:34:40;47.72;;;23.05;;
68108;SDS011;54893;49.864;19.084;2023-06-10T03:39:41;55.83;;;28.17;;
68108;SDS011;54893;49.864;19.084;2023-06-10T03:44:41;56.50;;;27.80;;
68108;SDS011;54893;49.864;19.084;2023-06-10T03:49:41;52.03;;;26.00;;
68108;SDS011;54893;49.864;19.084;2023-06-10T03:54:42;49.70;;;24.97;;
68108;SDS011;54893;49.864;19.084;2023-06-10T03:59:42;52.47;;;26.63;;
68108;SDS011;54893;49.864;19.084;2023-06-10T04:04:43;51.43;;;26.13;;
68108;SDS011;54893;49.864;19.084;2023-06-10T04:09:43;52.73;;;27.73;;
68108;SDS011;54893;49.864;19.084;2023-06-10T04:14:44;52.40;;;26.17;;
68108;SDS011;54893;49.864;19.084;2023-06-10T04:19:44;47.67;;;24.93;;
68108;SDS011;54893;49.864;19.084;2023-06-10T04:24:45;49.08;;;23.92;;
68108;SDS011;54893;49.864;19.084;2023-06-10T04:29:45;45.00;;;23.90;;
68108;SDS011;54893;49.864;19.084;2023-06-10T04:34:46;44.23;;;22.77;;
68108;SDS011;54893;49.864;19.084;2023-06-10T04:39:46;45.53;;;24.60;;
68108;SDS011;54893;49.864;19.084;2023-06-10T04:44:47;44.73;;;24.73;;
68108;SDS011;54893;49.864;19.084;2023-06-10T04:49:47;42.17;;;24.30;;
68108;SDS011;54893;49.864;19.084;2023-06-10T04:54:47;46.23;;;23.70;;
68108;SDS011;54893;49.864;19.084;2023-06-10T04:59:48;43.17;;;22.93;;
68108;SDS011;54893;49.864;19.084;2023-06-10T05:04:48;45.00;;;24.70;;
68108;SDS011;54893;49.864;19.084;2023-06-10T05:09:49;41.97;;;23.90;;
68108;SDS011;54893;49.864;19.084;2023-06-10T05:14:49;39.13;;;22.20;;
68108;SDS011;54893;49.864;19.084;2023-06-10T05:19:50;42.97;;;25.57;;
68108;SDS011;54893;49.864;19.084;2023-06-10T05:24:50;39.57;;;22.07;;
68108;SDS011;54893;49.864;19.084;2023-06-10T05:29:51;37.10;;;21.88;;
68108;SDS011;54893;49.864;19.084;2023-06-10T05:34:51;37.07;;;20.67;;
68108;SDS011;54893;49.864;19.084;2023-06-10T05:39:52;35.13;;;20.37;;
68108;SDS011;54893;49.864;19.084;2023-06-10T05:44:52;34.20;;;18.67;;
68108;SDS011;54893;49.864;19.084;2023-06-10T05:49:52;31.73;;;16.80;;
68108;SDS011;54893;49.864;19.084;2023-06-10T05:54:53;27.00;;;17.20;;
68108;SDS011;54893;49.864;19.084;2023-06-10T05:59:54;27.88;;;17.05;;
68108;SDS011;54893;49.864;19.084;2023-06-10T06:04:55;26.60;;;15.83;;
68108;SDS011;54893;49.864;19.084;2023-06-10T06:09:55;26.10;;;16.20;;
68108;SDS011;54893;49.864;19.084;2023-06-10T06:14:55;27.07;;;16.80;;
68108;SDS011;54893;49.864;19.084;2023-06-10T06:19:56;28.27;;;17.33;;
68108;SDS011;54893;49.864;19.084;2023-06-10T06:24:56;30.57;;;17.70;;
68108;SDS011;54893;49.864;19.084;2023-06-10T06:29:56;33.07;;;19.00;;
68108;SDS011;54893;49.864;19.084;2023-06-10T06:34:57;30.93;;;18.37;;
68108;SDS011;54893;49.864;19.084;2023-06-10T06:39:57;32.57;;;19.60;;
68108;SDS011;54893;49.864;19.084;2023-06-10T06:44:58;33.60;;;18.83;;
68108;SDS011;54893;49.864;19.084;2023-06-10T06:49:58;33.40;;;18.40;;
68108;SDS011;54893;49.864;19.084;2023-06-10T06:54:58;32.17;;;19.17;;
68108;SDS011;54893;49.864;19.084;2023-06-10T06:59:59;33.33;;;19.23;;
68108;SDS011;54893;49.864;19.084;2023-06-10T07:04:59;37.50;;;19.90;;
68108;SDS011;54893;49.864;19.084;2023-06-10T07:10:00;33.75;;;20.23;;
68108;SDS011;54893;49.864;19.084;2023-06-10T07:15:01;33.70;;;19.67;;
68108;SDS011;54893;49.864;19.084;2023-06-10T07:20:01;33.57;;;19.37;;
68108;SDS011;54893;49.864;19.084;2023-06-10T07:25:02;34.63;;;18.77;;
68108;SDS011;54893;49.864;19.084;2023-06-10T07:30:03;35.37;;;20.17;;
68108;SDS011;54893;49.864;19.084;2023-06-10T07:35:07;37.97;;;21.00;;
68108;SDS011;54893;49.864;19.084;2023-06-10T07:40:08;32.37;;;20.30;;
68108;SDS011;54893;49.864;19.084;2023-06-10T07:45:09;30.40;;;18.90;;
68108;SDS011;54893;49.864;19.084;2023-06-10T07:50:10;29.37;;;17.80;;
68108;SDS011;54893;49.864;19.084;2023-06-10T07:55:10;28.67;;;16.27;;
68108;SDS011;54893;49.864;19.084;2023-06-10T08:00:11;25.80;;;15.47;;
68108;SDS011;54893;49.864;19.084;2023-06-10T08:05:11;22.48;;;15.05;;
68108;SDS011;54893;49.864;19.084;2023-06-10T08:10:12;25.40;;;15.20;;
68108;SDS011;54893;49.864;19.084;2023-06-10T08:15:12;25.47;;;16.20;;
68108;SDS011;54893;49.864;19.084;2023-06-10T08:20:13;23.77;;;14.63;;
68108;SDS011;54893;49.864;19.084;2023-06-10T08:25:13;23.80;;;14.57;;
68108;SDS011;54893;49.864;19.084;2023-06-10T08:30:14;22.53;;;15.00;;
68108;SDS011;54893;49.864;19.084;2023-06-10T08:35:14;24.57;;;14.17;;
68108;SDS011;54893;49.864;19.084;2023-06-10T08:40:15;23.47;;;13.60;;
68108;SDS011;54893;49.864;19.084;2023-06-10T08:45:18;18.73;;;12.97;;
68108;SDS011;54893;49.864;19.084;2023-06-10T08:50:19;17.42;;;12.23;;
68108;SDS011;54893;49.864;19.084;2023-06-10T08:55:28;17.97;;;11.60;;
68108;SDS011;54893;49.864;19.084;2023-06-10T09:00:31;16.33;;;11.35;;
68108;SDS011;54893;49.864;19.084;2023-06-10T09:05:33;13.57;;;10.23;;
68108;SDS011;54893;49.864;19.084;2023-06-10T09:10:34;14.73;;;10.47;;
68108;SDS011;54893;49.864;19.084;2023-06-10T09:15:34;17.07;;;12.63;;
68108;SDS011;54893;49.864;19.084;2023-06-10T09:20:35;18.00;;;12.68;;
68108;SDS011;54893;49.864;19.084;2023-06-10T09:25:36;18.67;;;12.52;;
68108;SDS011;54893;49.864;19.084;2023-06-10T09:30:38;17.40;;;12.67;;
68108;SDS011;54893;49.864;19.084;2023-06-10T09:35:44;15.20;;;12.67;;
68108;SDS011;54893;49.864;19.084;2023-06-10T09:40:50;16.65;;;12.10;;
68108;SDS011;54893;49.864;19.084;2023-06-10T09:45:51;17.85;;;12.80;;
68108;SDS011;54893;49.864;19.084;2023-06-10T09:50:55;18.17;;;13.13;;
68108;SDS011;54893;49.864;19.084;2023-06-10T09:55:56;18.47;;;13.20;;
68108;SDS011;54893;49.864;19.084;2023-06-10T10:00:57;16.67;;;12.60;;
68108;SDS011;54893;49.864;19.084;2023-06-10T10:05:58;15.03;;;11.30;;
68108;SDS011;54893;49.864;19.084;2023-06-10T10:11:00;17.83;;;11.13;;
68108;SDS011;54893;49.864;19.084;2023-06-10T10:16:12;15.00;;;10.68;;
68108;SDS011;54893;49.864;19.084;2023-06-10T10:21:16;13.93;;;11.18;;
68108;SDS011;54893;49.864;19.084;2023-06-10T10:26:22;20.23;;;11.40;;
68108;SDS011;54893;49.864;19.084;2023-06-10T10:31:25;14.15;;;11.45;;
68108;SDS011;54893;49.864;19.084;2023-06-10T10:36:28;15.13;;;11.20;;
68108;SDS011;54893;49.864;19.084;2023-06-10T10:41:29;19.17;;;12.03;;
68108;SDS011;54893;49.864;19.084;2023-06-10T10:46:31;13.43;;;10.85;;
68108;SDS011;54893;49.864;19.084;2023-06-10T10:51:59;14.77;;;10.35;;
68108;SDS011;54893;49.864;19.084;2023-06-10T10:57:11;15.70;;;10.00;;
68108;SDS011;54893;49.864;19.084;2023-06-10T11:02:15;13.93;;;10.95;;
68108;SDS011;54893;49.864;19.084;2023-06-10T11:07:22;14.57;;;10.53;;
68108;SDS011;54893;49.864;19.084;2023-06-10T11:12:25;12.52;;;9.98;;
68108;SDS011;54893;49.864;19.084;2023-06-10T11:17:25;13.18;;;10.65;;
68108;SDS011;54893;49.864;19.084;2023-06-10T11:22:26;17.90;;;11.20;;
68108;SDS011;54893;49.864;19.084;2023-06-10T11:27:26;17.30;;;9.90;;
68108;SDS011;54893;49.864;19.084;2023-06-10T11:32:39;14.90;;;9.97;;
68108;SDS011;54893;49.864;19.084;2023-06-10T11:37:43;13.38;;;9.68;;
68108;SDS011;54893;49.864;19.084;2023-06-10T11:42:43;14.60;;;10.53;;
68108;SDS011;54893;49.864;19.084;2023-06-10T11:47:56;16.67;;;10.23;;
68108;SDS011;54893;49.864;19.084;2023-06-10T11:53:00;13.07;;;9.63;;
68108;SDS011;54893;49.864;19.084;2023-06-10T11:58:01;12.23;;;8.32;;
68108;SDS011;54893;49.864;19.084;2023-06-10T12:03:01;32.07;;;13.07;;
68108;SDS011;54893;49.864;19.084;2023-06-10T12:08:08;22.03;;;10.73;;
68108;SDS011;54893;49.864;19.084;2023-06-10T12:13:10;14.10;;;9.40;;
68108;SDS011;54893;49.864;19.084;2023-06-10T12:23:18;22.43;;;15.90;;
68108;SDS011;54893;49.864;19.084;2023-06-10T12:28:23;24.35;;;15.23;;
68108;SDS011;54893;49.864;19.084;2023-06-10T12:33:24;31.48;;;23.08;;
68108;SDS011;54893;49.864;19.084;2023-06-10T12:38:25;19.85;;;13.60;;
68108;SDS011;54893;49.864;19.084;2023-06-10T12:43:30;17.60;;;12.30;;
68108;SDS011;54893;49.864;19.084;2023-06-10T12:48:31;16.35;;;9.15;;
68108;SDS011;54893;49.864;19.084;2023-06-10T12:53:31;16.50;;;10.30;;
68108;SDS011;54893;49.864;19.084;2023-06-10T12:58:32;29.30;;;17.10;;
68108;SDS011;54893;49.864;19.084;2023-06-10T13:03:33;25.83;;;14.17;;
68108;SDS011;54893;49.864;19.084;2023-06-10T13:08:33;20.83;;;10.23;;
68108;SDS011;54893;49.864;19.084;2023-06-10T13:13:36;15.98;;;8.55;;
68108;SDS011;54893;49.864;19.084;2023-06-10T13:18:37;10.48;;;7.00;;
68108;SDS011;54893;49.864;19.084;2023-06-10T13:23:38;19.33;;;11.18;;
68108;SDS011;54893;49.864;19.084;2023-06-10T13:28:38;15.77;;;10.67;;
68108;SDS011;54893;49.864;19.084;2023-06-10T13:33:39;11.33;;;7.83;;
68108;SDS011;54893;49.864;19.084;2023-06-10T13:38:40;15.10;;;10.13;;
68108;SDS011;54893;49.864;19.084;2023-06-10T13:43:40;10.35;;;6.78;;
68108;SDS011;54893;49.864;19.084;2023-06-10T13:48:41;11.30;;;7.85;;
68108;SDS011;54893;49.864;19.084;2023-06-10T13:53:42;10.07;;;7.20;;
68108;SDS011;54893;49.864;19.084;2023-06-10T13:58:42;12.17;;;7.77;;
68108;SDS011;54893;49.864;19.084;2023-06-10T14:03:43;11.10;;;6.90;;
68108;SDS011;54893;49.864;19.084;2023-06-10T14:08:44;9.33;;;6.77;;
68108;SDS011;54893;49.864;19.084;2023-06-10T14:13:45;15.80;;;9.70;;
68108;SDS011;54893;49.864;19.084;2023-06-10T14:18:45;11.77;;;7.33;;
68108;SDS011;54893;49.864;19.084;2023-06-10T14:23:46;11.17;;;5.97;;
68108;SDS011;54893;49.864;19.084;2023-06-10T14:28:46;13.50;;;6.60;;
68108;SDS011;54893;49.864;19.084;2023-06-10T14:33:46;12.50;;;6.80;;
68108;SDS011;54893;49.864;19.084;2023-06-10T14:38:47;9.00;;;6.17;;
68108;SDS011;54893;49.864;19.084;2023-06-10T14:43:47;7.73;;;5.40;;
68108;SDS011;54893;49.864;19.084;2023-06-10T14:48:48;9.70;;;5.50;;
68108;SDS011;54893;49.864;19.084;2023-06-10T14:53:49;10.27;;;5.38;;
68108;SDS011;54893;49.864;19.084;2023-06-10T14:58:50;8.27;;;5.93;;
68108;SDS011;54893;49.864;19.084;2023-06-10T15:03:50;10.30;;;5.97;;
68108;SDS011;54893;49.864;19.084;2023-06-10T15:08:51;10.23;;;6.20;;
68108;SDS011;54893;49.864;19.084;2023-06-10T15:13:51;17.27;;;13.00;;
68108;SDS011;54893;49.864;19.084;2023-06-10T15:18:52;17.58;;;12.95;;
68108;SDS011;54893;49.864;19.084;2023-06-10T15:23:52;8.93;;;5.00;;
68108;SDS011;54893;49.864;19.084;2023-06-10T15:28:53;9.98;;;4.75;;
68108;SDS011;54893;49.864;19.084;2023-06-10T15:33:53;14.10;;;8.93;;
68108;SDS011;54893;49.864;19.084;2023-06-10T15:38:54;8.40;;;4.60;;
68108;SDS011;54893;49.864;19.084;2023-06-10T15:43:57;7.50;;;5.03;;
68108;SDS011;54893;49.864;19.084;2023-06-10T15:48:59;6.70;;;4.20;;
68108;SDS011;54893;49.864;19.084;2023-06-10T15:54:00;5.97;;;3.63;;
68108;SDS011;54893;49.864;19.084;2023-06-10T15:59:00;5.43;;;3.53;;
68108;SDS011;54893;49.864;19.084;2023-06-10T16:04:00;8.33;;;4.27;;
68108;SDS011;54893;49.864;19.084;2023-06-10T16:09:01;4.87;;;3.87;;
68108;SDS011;54893;49.864;19.084;2023-06-10T16:14:01;6.10;;;3.65;;
68108;SDS011;54893;49.864;19.084;2023-06-10T16:19:02;6.60;;;4.30;;
68108;SDS011;54893;49.864;19.084;2023-06-10T16:24:03;6.30;;;4.43;;
68108;SDS011;54893;49.864;19.084;2023-06-10T16:29:03;6.73;;;4.47;;
68108;SDS011;54893;49.864;19.084;2023-06-10T16:34:04;5.03;;;4.13;;
68108;SDS011;54893;49.864;19.084;2023-06-10T16:39:04;5.80;;;4.47;;
68108;SDS011;54893;49.864;19.084;2023-06-10T16:44:05;6.93;;;4.77;;
68108;SDS011;54893;49.864;19.084;2023-06-10T16:49:05;5.07;;;3.87;;
68108;SDS011;54893;49.864;19.084;2023-06-10T16:54:05;6.27;;;4.70;;
68108;SDS011;54893;49.864;19.084;2023-06-10T16:59:06;8.37;;;4.53;;
68108;SDS011;54893;49.864;19.084;2023-06-10T17:04:06;8.13;;;4.90;;
68108;SDS011;54893;49.864;19.084;2023-06-10T17:09:07;8.70;;;5.40;;
68108;SDS011;54893;49.864;19.084;2023-06-10T17:14:07;9.43;;;5.70;;
68108;SDS011;54893;49.864;19.084;2023-06-10T17:19:07;6.07;;;4.37;;
68108;SDS011;54893;49.864;19.084;2023-06-10T17:24:08;6.03;;;3.83;;
68108;SDS011;54893;49.864;19.084;2023-06-10T17:29:08;7.67;;;3.90;;
68108;SDS011;54893;49.864;19.084;2023-06-10T17:34:09;6.17;;;3.80;;
68108;SDS011;54893;49.864;19.084;2023-06-10T17:39:10;8.00;;;4.70;;
68108;SDS011;54893;49.864;19.084;2023-06-10T17:44:11;16.10;;;8.98;;
68108;SDS011;54893;49.864;19.084;2023-06-10T17:49:12;12.17;;;5.87;;
68108;SDS011;54893;49.864;19.084;2023-06-10T17:54:12;14.37;;;8.77;;
68108;SDS011;54893;49.864;19.084;2023-06-10T17:59:12;12.17;;;6.97;;
68108;SDS011;54893;49.864;19.084;2023-06-10T18:04:13;9.10;;;5.03;;
68108;SDS011;54893;49.864;19.084;2023-06-10T18:09:13;8.80;;;5.40;;
68108;SDS011;54893;49.864;19.084;2023-06-10T18:14:14;16.53;;;9.27;;
68108;SDS011;54893;49.864;19.084;2023-06-10T18:19:14;8.52;;;5.28;;
68108;SDS011;54893;49.864;19.084;2023-06-10T18:24:15;10.40;;;5.43;;
68108;SDS011;54893;49.864;19.084;2023-06-10T18:29:15;7.93;;;4.63;;
68108;SDS011;54893;49.864;19.084;2023-06-10T18:34:16;11.00;;;5.53;;
68108;SDS011;54893;49.864;19.084;2023-06-10T18:39:16;11.40;;;4.90;;
68108;SDS011;54893;49.864;19.084;2023-06-10T18:44:17;8.07;;;5.07;;
68108;SDS011;54893;49.864;19.084;2023-06-10T18:49:17;9.13;;;4.70;;
68108;SDS011;54893;49.864;19.084;2023-06-10T18:54:18;9.80;;;5.40;;
68108;SDS011;54893;49.864;19.084;2023-06-10T18:59:19;8.60;;;5.43;;
68108;SDS011;54893;49.864;19.084;2023-06-10T19:04:20;8.10;;;4.90;;
68108;SDS011;54893;49.864;19.084;2023-06-10T19:09:20;10.60;;;5.60;;
68108;SDS011;54893;49.864;19.084;2023-06-10T19:14:20;9.13;;;4.50;;
68108;SDS011;54893;49.864;19.084;2023-06-10T19:19:21;9.00;;;4.90;;
68108;SDS011;54893;49.864;19.084;2023-06-10T19:24:21;10.30;;;6.37;;
68108;SDS011;54893;49.864;19.084;2023-06-10T19:29:22;7.73;;;5.17;;
68108;SDS011;54893;49.864;19.084;2023-06-10T19:34:22;8.73;;;5.57;;
68108;SDS011;54893;49.864;19.084;2023-06-10T19:39:22;10.50;;;5.67;;
68108;SDS011;54893;49.864;19.084;2023-06-10T19:44:23;9.70;;;6.27;;
68108;SDS011;54893;49.864;19.084;2023-06-10T19:49:23;10.90;;;5.73;;
68108;SDS011;54893;49.864;19.084;2023-06-10T19:54:24;14.82;;;8.23;;
68108;SDS011;54893;49.864;19.084;2023-06-10T19:59:24;11.80;;;7.23;;
68108;SDS011;54893;49.864;19.084;2023-06-10T20:04:24;12.43;;;6.20;;
68108;SDS011;54893;49.864;19.084;2023-06-10T20:09:25;12.37;;;7.00;;
68108;SDS011;54893;49.864;19.084;2023-06-10T20:14:25;13.83;;;8.97;;
68108;SDS011;54893;49.864;19.084;2023-06-10T20:19:26;13.53;;;8.13;;
68108;SDS011;54893;49.864;19.084;2023-06-10T20:24:26;28.97;;;17.07;;
68108;SDS011;54893;49.864;19.084;2023-06-10T20:29:27;16.10;;;9.47;;
68108;SDS011;54893;49.864;19.084;2023-06-10T20:34:27;14.63;;;7.10;;
68108;SDS011;54893;49.864;19.084;2023-06-10T20:39:27;13.77;;;6.80;;
68108;SDS011;54893;49.864;19.084;2023-06-10T20:44:28;10.40;;;6.23;;
68108;SDS011;54893;49.864;19.084;2023-06-10T20:49:28;12.83;;;6.80;;
68108;SDS011;54893;49.864;19.084;2023-06-10T20:54:28;10.37;;;7.03;;
68108;SDS011;54893;49.864;19.084;2023-06-10T20:59:29;13.03;;;7.63;;
68108;SDS011;54893;49.864;19.084;2023-06-10T21:04:29;12.50;;;7.57;;
68108;SDS011;54893;49.864;19.084;2023-06-10T21:09:30;10.37;;;6.87;;
68108;SDS011;54893;49.864;19.084;2023-06-10T21:14:30;12.73;;;7.20;;
68108;SDS011;54893;49.864;19.084;2023-06-10T21:19:31;14.53;;;8.00;;
68108;SDS011;54893;49.864;19.084;2023-06-10T21:24:31;13.47;;;7.67;;
68108;SDS011;54893;49.864;19.084;2023-06-10T21:29:31;13.60;;;7.13;;
68108;SDS011;54893;49.864;19.084;2023-06-10T21:34:32;12.27;;;7.10;;
68108;SDS011;54893;49.864;19.084;2023-06-10T21:39:32;12.70;;;7.10;;
68108;SDS011;54893;49.864;19.084;2023-06-10T21:44:32;12.27;;;6.73;;
68108;SDS011;54893;49.864;19.084;2023-06-10T21:49:33;13.53;;;7.43;;
68108;SDS011;54893;49.864;19.084;2023-06-10T21:54:33;19.97;;;7.93;;
68108;SDS011;54893;49.864;19.084;2023-06-10T21:59:34;16.03;;;8.30;;
68108;SDS011;54893;49.864;19.084;2023-06-10T22:04:36;12.15;;;7.68;;
68108;SDS011;54893;49.864;19.084;2023-06-10T22:09:37;12.50;;;8.00;;
68108;SDS011;54893;49.864;19.084;2023-06-10T22:14:44;12.63;;;7.60;;
68108;SDS011;54893;49.864;19.084;2023-06-10T22:19:45;15.53;;;7.87;;
68108;SDS011;54893;49.864;19.084;2023-06-10T22:24:53;14.37;;;8.07;;
68108;SDS011;54893;49.864;19.084;2023-06-10T22:29:54;15.00;;;8.32;;
68108;SDS011;54893;49.864;19.084;2023-06-10T22:34:54;13.47;;;8.63;;
68108;SDS011;54893;49.864;19.084;2023-06-10T22:39:55;14.67;;;8.60;;
68108;SDS011;54893;49.864;19.084;2023-06-10T22:44:55;14.40;;;9.13;;
68108;SDS011;54893;49.864;19.084;2023-06-10T22:49:56;14.37;;;9.17;;
68108;SDS011;54893;49.864;19.084;2023-06-10T22:54:56;18.20;;;10.47;;
68108;SDS011;54893;49.864;19.084;2023-06-10T22:59:59;15.57;;;9.23;;
68108;SDS011;54893;49.864;19.084;2023-06-10T23:05:00;17.02;;;9.65;;
68108;SDS011;54893;49.864;19.084;2023-06-10T23:10:00;16.30;;;10.13;;
68108;SDS011;54893;49.864;19.084;2023-06-10T23:15:00;18.17;;;10.40;;
68108;SDS011;54893;49.864;19.084;2023-06-10T23:20:01;17.13;;;10.97;;
68108;SDS011;54893;49.864;19.084;2023-06-10T23:25:01;16.53;;;10.57;;
68108;SDS011;54893;49.864;19.084;2023-06-10T23:30:02;19.20;;;10.93;;
68108;SDS011;54893;49.864;19.084;2023-06-10T23:35:03;20.85;;;11.30;;
68108;SDS011;54893;49.864;19.084;2023-06-10T23:40:04;18.63;;;10.75;;
68108;SDS011;54893;49.864;19.084;2023-06-10T23:45:06;20.50;;;11.17;;
68108;SDS011;54893;49.864;19.084;2023-06-10T23:50:07;17.33;;;10.75;;
68108;SDS011;54893;49.864;19.084;2023-06-10T23:55:08;16.20;;;10.33;;
